createdAt,value
2019-02-27T00:00:15.945Z,60.62
2019-02-27T00:02:43.266Z,60.30
2019-02-27T00:05:10.556Z,60.28
2019-02-27T00:07:37.306Z,61.09
2019-02-27T00:10:06.738Z,60.90
2019-02-27T00:12:34.748Z,61.64
2019-02-27T00:15:02.195Z,61.53
2019-02-27T00:17:31.005Z,61.67
2019-02-27T00:19:58.407Z,61.66
2019-02-27T00:22:25.245Z,61.91
2019-02-27T00:24:52.015Z,61.11
2019-02-27T00:27:19.221Z,60.16
2019-02-27T00:29:46.023Z,59.82
2019-02-27T00:32:15.787Z,59.55
2019-02-27T00:34:43.227Z,59.92
2019-02-27T00:37:10.143Z,59.96
2019-02-27T00:39:37.060Z,59.97
2019-02-27T00:42:04.218Z,59.42
2019-02-27T00:44:34.029Z,59.76
2019-02-27T00:46:59.935Z,59.72
2019-02-27T00:49:27.019Z,59.86
2019-02-27T00:51:54.171Z,60.62
2019-02-27T00:54:21.304Z,61.10
2019-02-27T00:56:48.080Z,61.04
2019-02-27T00:59:15.176Z,60.57
2019-02-27T01:01:47.306Z,60.81
2019-02-27T01:04:12.679Z,60.73
2019-02-27T01:06:39.465Z,60.31
2019-02-27T01:09:07.033Z,60.32
2019-02-27T01:11:33.972Z,60.87
2019-02-27T01:14:03.720Z,61.02
2019-02-27T01:16:29.876Z,60.56
2019-02-27T01:18:56.764Z,60.49
2019-02-27T01:21:23.518Z,60.30
2019-02-27T01:23:50.275Z,60.36
2019-02-27T01:26:17.232Z,60.55
2019-02-27T01:28:45.463Z,60.46
2019-02-27T01:31:13.258Z,60.05
2019-02-27T01:33:40.083Z,59.88
2019-02-27T01:36:06.907Z,60.38
2019-02-27T01:41:59.364Z,60.91
2019-02-27T01:44:44.014Z,60.78
2019-02-27T01:50:55.079Z,62.10
2019-02-27T01:53:37.952Z,62.34
2019-02-27T01:56:12.275Z,61.65
2019-02-27T01:58:54.265Z,61.59
2019-02-27T02:01:21.574Z,60.95
2019-02-27T02:03:48.476Z,60.94
2019-02-27T02:06:15.234Z,61.29
2019-02-27T02:08:48.020Z,61.15
2019-02-27T02:11:13.665Z,61.43
2019-02-27T02:13:52.512Z,61.42
2019-02-27T02:16:34.416Z,61.16
2019-02-27T02:19:30.610Z,61.16
2019-02-27T02:22:32.896Z,61.74
2019-02-27T02:25:32.785Z,61.86
2019-02-27T02:28:26.564Z,61.98
2019-02-27T02:31:08.216Z,61.34
2019-02-27T02:34:09.141Z,61.09
2019-02-27T02:37:11.708Z,61.31
2019-02-27T02:40:12.996Z,61.60
2019-02-27T02:43:05.382Z,61.61
2019-02-27T02:46:08.865Z,61.36
2019-02-27T02:49:06.203Z,61.22
2019-02-27T02:51:37.014Z,61.21
2019-02-27T02:54:39.064Z,61.13
2019-02-27T02:57:20.044Z,61.56
2019-02-27T03:00:01.905Z,61.56
2019-02-27T03:02:46.932Z,61.83
2019-02-27T03:05:28.374Z,61.95
2019-02-27T03:08:20.215Z,62.04
2019-02-27T03:11:02.472Z,62.13
2019-02-27T03:13:49.986Z,61.77
2019-02-27T03:16:31.779Z,62.31
2019-02-27T03:19:41.793Z,61.87
2019-02-27T03:22:40.397Z,62.23
2019-02-27T03:25:40.699Z,62.23
2019-02-27T03:28:40.937Z,62.01
2019-02-27T03:31:40.192Z,61.29
2019-02-27T03:34:22.365Z,61.28
2019-02-27T03:37:15.072Z,61.33
2019-02-27T03:39:59.567Z,61.49
2019-02-27T03:43:10.190Z,61.36
2019-02-27T03:46:19.957Z,61.39
2019-02-27T03:49:04.720Z,61.83
2019-02-27T03:51:59.697Z,62.38
2019-02-27T03:54:48.488Z,62.99
2019-02-27T03:57:56.707Z,62.58
2019-02-27T04:00:55.285Z,63.26
2019-02-27T04:04:02.986Z,62.65
2019-02-27T04:06:56.460Z,62.95
2019-02-27T04:09:22.934Z,62.85
2019-02-27T04:11:50.007Z,62.78
2019-02-27T04:14:32.128Z,62.77
2019-02-27T04:17:05.507Z,61.99
2019-02-27T04:19:27.911Z,62.00
2019-02-27T04:22:00.593Z,62.30
2019-02-27T04:24:23.390Z,62.56
2019-02-27T04:26:50.195Z,62.51
2019-02-27T04:29:17.037Z,62.19
2019-02-27T04:31:43.771Z,62.19
2019-02-27T04:34:11.061Z,62.58
2019-02-27T04:36:37.897Z,62.77
2019-02-27T04:39:06.050Z,62.52
2019-02-27T04:41:33.040Z,62.42
2019-02-27T04:44:02.973Z,62.32
2019-02-27T04:46:29.538Z,62.08
2019-02-27T04:48:56.331Z,62.54
2019-02-27T04:51:23.901Z,62.39
2019-02-27T04:53:51.193Z,62.83
2019-02-27T04:56:17.992Z,62.84
2019-02-27T04:58:44.734Z,62.77
2019-02-27T05:01:11.582Z,63.15
2019-02-27T05:03:38.896Z,63.13
2019-02-27T05:06:05.886Z,63.43
2019-02-27T05:08:32.687Z,63.36
2019-02-27T05:10:59.579Z,63.39
2019-02-27T05:13:26.352Z,63.49
2019-02-27T05:15:53.669Z,63.30
2019-02-27T05:18:20.514Z,64.23
2019-02-27T05:20:47.456Z,63.77
2019-02-27T05:23:14.232Z,64.03
2019-02-27T05:25:41.083Z,65.03
2019-02-27T05:28:07.869Z,64.74
2019-02-27T05:30:34.619Z,65.17
2019-02-27T05:33:02.766Z,64.72
2019-02-27T05:35:30.193Z,64.43
2019-02-27T05:37:57.147Z,64.29
2019-02-27T05:40:25.945Z,64.19
2019-02-27T05:42:52.943Z,63.69
2019-02-27T05:45:19.760Z,64.21
2019-02-27T05:47:46.637Z,64.22
2019-02-27T05:50:13.381Z,64.43
2019-02-27T05:52:40.421Z,64.05
2019-02-27T05:55:07.161Z,64.27
2019-02-27T05:57:34.020Z,64.41
2019-02-27T06:00:02.635Z,64.18
2019-02-27T06:02:30.316Z,63.98
2019-02-27T06:04:59.170Z,63.89
2019-02-27T06:07:26.059Z,63.83
2019-02-27T06:09:52.881Z,63.40
2019-02-27T06:12:20.018Z,63.39
2019-02-27T06:14:46.796Z,63.48
2019-02-27T06:17:13.657Z,63.50
2019-02-27T06:19:40.385Z,63.63
2019-02-27T06:22:07.291Z,63.62
2019-02-27T06:24:34.052Z,63.40
2019-02-27T06:27:00.823Z,63.51
2019-02-27T06:29:28.361Z,63.39
2019-02-27T06:31:55.480Z,63.39
2019-02-27T06:34:24.855Z,64.00
2019-02-27T06:36:51.495Z,63.97
2019-02-27T06:39:18.321Z,63.86
2019-02-27T06:41:47.419Z,63.75
2019-02-27T06:44:14.078Z,63.57
2019-02-27T06:46:40.995Z,64.05
2019-02-27T06:49:07.710Z,64.03
2019-02-27T06:51:35.776Z,64.05
2019-02-27T06:54:03.186Z,64.10
2019-02-27T06:56:30.776Z,64.10
2019-02-27T06:58:57.505Z,63.82
2019-02-27T07:01:24.396Z,63.85
2019-02-27T07:03:51.134Z,63.78
2019-02-27T07:06:21.327Z,63.71
2019-02-27T07:08:46.906Z,63.88
2019-02-27T07:11:14.037Z,63.84
2019-02-27T07:13:41.042Z,63.52
2019-02-27T07:16:08.516Z,63.40
2019-02-27T07:18:36.465Z,63.78
2019-02-27T07:21:03.350Z,64.02
2019-02-27T07:23:30.525Z,63.89
2019-02-27T07:25:59.351Z,63.65
2019-02-27T07:28:26.243Z,63.44
2019-02-27T07:30:52.999Z,63.34
2019-02-27T07:33:20.257Z,63.21
2019-02-27T07:35:47.750Z,62.76
2019-02-27T07:38:14.646Z,62.56
2019-02-27T07:40:42.921Z,62.50
2019-02-27T07:43:10.775Z,62.50
2019-02-27T07:45:42.802Z,62.56
2019-02-27T07:48:09.173Z,62.68
2019-02-27T07:50:36.340Z,62.28
2019-02-27T07:53:03.230Z,61.64
2019-02-27T07:55:30.442Z,61.39
2019-02-27T07:57:58.758Z,61.21
2019-02-27T08:00:26.626Z,61.32
2019-02-27T08:02:54.036Z,61.47
2019-02-27T08:05:20.984Z,61.16
2019-02-27T08:07:49.156Z,60.93
2019-02-27T08:10:22.604Z,60.46
2019-02-27T08:12:49.780Z,60.26
2019-02-27T08:15:18.336Z,59.92
2019-02-27T08:17:45.257Z,59.34
2019-02-27T08:20:14.826Z,58.77
2019-02-27T08:22:42.192Z,58.36
2019-02-27T08:25:17.221Z,58.00
2019-02-27T08:27:44.025Z,57.31
2019-02-27T08:30:22.025Z,57.00
2019-02-27T08:32:48.766Z,56.64
2019-02-27T08:35:16.694Z,56.18
2019-02-27T08:37:44.009Z,55.43
2019-02-27T08:40:12.384Z,54.83
2019-02-27T08:42:40.527Z,54.28
2019-02-27T08:45:20.090Z,53.84
2019-02-27T08:47:47.458Z,53.69
2019-02-27T08:50:16.563Z,53.23
2019-02-27T08:52:44.476Z,52.74
2019-02-27T08:55:19.984Z,52.11
2019-02-27T08:57:43.693Z,51.76
2019-02-27T09:00:23.745Z,51.50
2019-02-27T09:02:50.491Z,51.26
2019-02-27T09:05:20.018Z,50.65
2019-02-27T09:07:46.707Z,50.02
2019-02-27T09:10:17.172Z,49.60
2019-02-27T09:12:45.388Z,49.47
2019-02-27T09:15:13.555Z,48.85
2019-02-27T09:17:40.814Z,48.40
2019-02-27T09:20:19.682Z,48.11
2019-02-27T09:22:46.644Z,47.96
2019-02-27T09:25:13.525Z,47.29
2019-02-27T09:27:40.277Z,46.23
2019-02-27T09:30:17.967Z,45.38
2019-02-27T09:32:46.031Z,45.61
2019-02-27T09:35:13.160Z,45.01
2019-02-27T09:37:43.538Z,44.40
2019-02-27T09:40:26.268Z,43.97
2019-02-27T09:42:53.982Z,43.98
2019-02-27T09:45:31.297Z,44.04
2019-02-27T09:47:59.871Z,43.98
2019-02-27T09:50:48.251Z,43.96
2019-02-27T09:53:15.156Z,43.56
2019-02-27T09:55:42.423Z,43.56
2019-02-27T09:58:11.519Z,43.53
2019-02-27T10:01:00.291Z,43.17
2019-02-27T10:03:27.631Z,42.66
2019-02-27T10:05:54.496Z,42.03
2019-02-27T10:08:21.268Z,41.40
2019-02-27T10:10:48.145Z,40.79
2019-02-27T10:13:15.514Z,40.20
2019-02-27T10:15:42.257Z,40.28
2019-02-27T10:18:08.980Z,40.51
2019-02-27T10:20:37.307Z,40.50
2019-02-27T10:23:04.820Z,40.41
2019-02-27T10:25:31.606Z,39.93
2019-02-27T10:28:03.380Z,39.71
2019-02-27T10:30:27.052Z,39.66
2019-02-27T10:32:53.792Z,39.54
2019-02-27T10:35:20.552Z,39.09
2019-02-27T10:37:50.247Z,38.73
2019-02-27T10:40:21.895Z,38.34
2019-02-27T10:42:50.429Z,38.07
2019-02-27T10:45:18.538Z,37.79
2019-02-27T10:47:45.348Z,37.49
2019-02-27T10:50:14.261Z,36.73
2019-02-27T10:52:41.407Z,36.11
2019-02-27T10:55:18.998Z,35.86
2019-02-27T10:57:45.773Z,35.44
2019-02-27T11:00:31.713Z,34.99
2019-02-27T11:02:59.777Z,34.53
2019-02-27T11:05:29.624Z,34.10
2019-02-27T11:07:56.960Z,33.86
2019-02-27T11:10:24.000Z,33.36
2019-02-27T11:12:50.793Z,32.86
2019-02-27T11:15:19.238Z,32.64
2019-02-27T11:17:46.171Z,32.43
2019-02-27T11:20:13.675Z,31.91
2019-02-27T11:22:41.366Z,31.64
2019-02-27T11:25:15.273Z,31.19
2019-02-27T11:27:42.099Z,30.83
2019-02-27T11:30:25.827Z,30.46
2019-02-27T11:32:56.791Z,29.76
2019-02-27T11:35:22.027Z,29.07
2019-02-27T11:37:50.465Z,28.64
2019-02-27T11:40:23.901Z,27.97
2019-02-27T11:42:50.844Z,27.44
2019-02-27T11:45:18.201Z,26.73
2019-02-27T11:47:47.949Z,26.28
2019-02-27T11:50:17.856Z,25.97
2019-02-27T11:52:49.053Z,25.54
2019-02-27T11:55:19.818Z,25.35
2019-02-27T11:57:46.590Z,25.06
2019-02-27T12:00:30.600Z,24.51
2019-02-27T12:02:57.748Z,24.22
2019-02-27T12:05:31.368Z,24.02
2019-02-27T12:07:55.042Z,23.68
2019-02-27T12:10:31.151Z,23.54
2019-02-27T12:13:01.474Z,23.10
2019-02-27T12:15:28.570Z,22.67
2019-02-27T12:17:59.830Z,22.47
2019-02-27T12:20:24.339Z,22.16
2019-02-27T12:22:51.069Z,21.98
2019-02-27T12:25:20.179Z,21.64
2019-02-27T12:27:49.772Z,21.14
2019-02-27T12:30:21.229Z,20.74
2019-02-27T12:32:48.019Z,20.80
2019-02-27T12:35:22.049Z,20.70
2019-02-27T12:37:48.998Z,20.33
2019-02-27T12:40:21.184Z,20.41
2019-02-27T12:42:47.135Z,20.23
2019-02-27T12:45:17.054Z,19.79
2019-02-27T12:47:44.202Z,19.68
2019-02-27T12:50:17.915Z,19.47
2019-02-27T12:52:47.905Z,19.30
2019-02-27T12:55:13.403Z,19.27
2019-02-27T12:57:40.173Z,19.04
2019-02-27T13:00:18.225Z,18.60
2019-02-27T13:02:45.036Z,18.64
2019-02-27T13:05:17.989Z,18.28
2019-02-27T13:07:45.505Z,18.41
2019-02-27T13:10:20.833Z,18.05
2019-02-27T13:12:49.267Z,18.05
2019-02-27T13:15:19.691Z,18.32
2019-02-27T13:17:46.563Z,18.48
2019-02-27T13:20:17.625Z,18.44
2019-02-27T13:22:44.863Z,18.05
2019-02-27T13:25:11.907Z,18.37
2019-02-27T13:27:40.271Z,18.27
2019-02-27T13:30:15.350Z,18.30
2019-02-27T13:32:42.564Z,18.00
2019-02-27T13:35:09.628Z,18.11
2019-02-27T13:37:36.780Z,18.16
2019-02-27T13:40:14.313Z,18.09
2019-02-27T13:42:41.086Z,17.86
2019-02-27T13:45:23.787Z,17.84
2019-02-27T13:47:50.555Z,17.75
2019-02-27T13:50:22.390Z,17.97
2019-02-27T13:52:49.846Z,18.00
2019-02-27T13:55:20.526Z,17.95
2019-02-27T13:57:47.468Z,17.71
2019-02-27T14:00:25.975Z,17.66
2019-02-27T14:02:53.229Z,17.57
2019-02-27T14:05:20.578Z,17.74
2019-02-27T14:07:48.447Z,17.80
2019-02-27T14:10:20.601Z,17.62
2019-02-27T14:12:47.040Z,17.51
2019-02-27T14:15:17.693Z,17.65
2019-02-27T14:17:44.593Z,17.74
2019-02-27T14:20:18.863Z,17.88
2019-02-27T14:22:45.940Z,17.89
2019-02-27T14:25:16.530Z,17.97
2019-02-27T14:27:47.264Z,18.08
2019-02-27T14:30:20.560Z,18.15
2019-02-27T14:32:48.046Z,18.36
2019-02-27T14:35:14.904Z,19.03
2019-02-27T14:37:42.072Z,19.96
2019-02-27T14:40:16.745Z,20.43
2019-02-27T14:42:43.573Z,20.74
2019-02-27T14:45:17.097Z,20.83
2019-02-27T14:47:47.327Z,20.73
2019-02-27T14:50:17.509Z,20.64
2019-02-27T14:52:45.194Z,20.66
2019-02-27T14:55:14.547Z,20.64
2019-02-27T14:57:42.303Z,20.73
2019-02-27T15:00:24.700Z,20.80
2019-02-27T15:02:52.169Z,20.92
2019-02-27T15:05:19.750Z,20.77
2019-02-27T15:07:46.679Z,20.73
2019-02-27T15:10:17.457Z,20.75
2019-02-27T15:12:44.286Z,20.68
2019-02-27T15:15:17.357Z,20.73
2019-02-27T15:17:44.113Z,20.80
2019-02-27T15:20:20.270Z,20.97
2019-02-27T15:22:47.032Z,20.96
2019-02-27T15:25:16.485Z,20.73
2019-02-27T15:27:45.253Z,20.68
2019-02-27T15:30:31.079Z,20.62
2019-02-27T15:32:57.847Z,20.53
2019-02-27T15:35:24.636Z,20.61
2019-02-27T15:37:51.395Z,20.54
2019-02-27T15:40:28.377Z,20.65
2019-02-27T15:42:53.236Z,20.72
2019-02-27T15:45:25.173Z,20.94
2019-02-27T15:47:53.596Z,20.99
2019-02-27T15:50:32.783Z,21.31
2019-02-27T15:52:59.591Z,21.59
2019-02-27T15:55:26.365Z,21.46
2019-02-27T15:57:54.157Z,21.61
2019-02-27T16:00:25.641Z,21.83
2019-02-27T16:02:52.489Z,22.18
2019-02-27T16:05:19.748Z,22.05
2019-02-27T16:07:49.544Z,22.28
2019-02-27T16:10:25.912Z,22.59
2019-02-27T16:12:52.867Z,22.91
2019-02-27T16:15:20.999Z,23.28
2019-02-27T16:17:47.849Z,23.62
2019-02-27T16:20:17.640Z,24.46
2019-02-27T16:22:44.468Z,25.02
2019-02-27T16:25:18.239Z,25.43
2019-02-27T16:27:43.968Z,25.87
2019-02-27T16:30:19.446Z,26.15
2019-02-27T16:32:48.484Z,26.56
2019-02-27T16:35:15.087Z,27.07
2019-02-27T16:37:41.896Z,27.54
2019-02-27T16:40:18.935Z,27.91
2019-02-27T16:42:45.996Z,28.28
2019-02-27T16:45:23.012Z,28.85
2019-02-27T16:47:50.156Z,29.52
2019-02-27T16:50:24.317Z,30.00
2019-02-27T16:52:50.054Z,30.29
2019-02-27T16:55:22.870Z,30.55
2019-02-27T16:57:50.118Z,30.47
2019-02-27T17:00:23.312Z,30.78
2019-02-27T17:02:50.111Z,30.47
2019-02-27T17:05:17.054Z,29.86
2019-02-27T17:07:44.158Z,29.71
2019-02-27T17:10:17.866Z,29.69
2019-02-27T17:12:44.309Z,30.08
2019-02-27T17:15:11.701Z,29.90
2019-02-27T17:17:38.439Z,29.87
2019-02-27T17:20:14.880Z,30.04
2019-02-27T17:22:41.624Z,30.97
2019-02-27T17:25:12.937Z,31.12
2019-02-27T17:27:39.677Z,31.23
2019-02-27T17:30:30.646Z,31.49
2019-02-27T17:32:57.842Z,31.30
2019-02-27T17:35:24.618Z,31.08
2019-02-27T17:37:51.460Z,30.97
2019-02-27T17:40:18.251Z,31.25
2019-02-27T17:42:45.471Z,31.44
2019-02-27T17:45:24.928Z,31.47
2019-02-27T17:47:51.687Z,31.81
2019-02-27T17:50:18.923Z,31.99
2019-02-27T17:52:48.722Z,32.81
2019-02-27T17:55:16.215Z,33.48
2019-02-27T17:57:43.297Z,34.41
2019-02-27T18:00:30.809Z,34.73
2019-02-27T18:02:57.842Z,34.94
2019-02-27T18:05:25.339Z,34.92
2019-02-27T18:07:53.360Z,35.34
2019-02-27T18:10:20.199Z,36.21
2019-02-27T18:12:47.145Z,36.31
2019-02-27T18:15:22.987Z,36.57
2019-02-27T18:17:49.841Z,36.54
2019-02-27T18:20:16.676Z,36.80
2019-02-27T18:22:50.609Z,36.64
2019-02-27T18:25:18.158Z,36.50
2019-02-27T18:27:47.724Z,36.62
2019-02-27T18:30:25.042Z,37.20
2019-02-27T18:32:51.789Z,37.27
2019-02-27T18:35:19.108Z,37.22
2019-02-27T18:37:45.977Z,37.54
2019-02-27T18:40:14.957Z,37.79
2019-02-27T18:42:42.226Z,38.10
2019-02-27T18:45:22.551Z,38.52
2019-02-27T18:47:49.294Z,38.57
2019-02-27T18:50:16.704Z,38.67
2019-02-27T18:52:43.461Z,39.00
2019-02-27T18:55:15.331Z,38.86
2019-02-27T18:57:47.115Z,39.10
2019-02-27T19:00:36.192Z,39.21
2019-02-27T19:06:19.495Z,40.53
2019-02-27T19:09:07.239Z,40.79
2019-02-27T19:11:47.329Z,40.35
2019-02-27T19:14:39.528Z,40.04
2019-02-27T19:17:06.749Z,40.52
2019-02-27T19:19:41.511Z,40.81
2019-02-27T19:22:16.149Z,41.45
2019-02-27T19:24:43.059Z,41.66
2019-02-27T19:27:10.126Z,41.56
2019-02-27T19:29:41.327Z,41.49
2019-02-27T19:32:10.231Z,41.68
2019-02-27T19:34:36.991Z,42.43
2019-02-27T19:37:05.231Z,42.62
2019-02-27T19:39:33.955Z,42.37
2019-02-27T19:42:07.194Z,42.24
2019-02-27T19:44:47.660Z,41.82
2019-02-27T19:47:20.610Z,41.98
2019-02-27T19:49:47.911Z,41.99
2019-02-27T19:52:26.869Z,41.93
2019-02-27T19:54:56.702Z,41.89
2019-02-27T19:57:42.329Z,42.12
2019-02-27T20:00:21.420Z,42.43
2019-02-27T20:02:49.017Z,42.39
2019-02-27T20:05:21.297Z,42.59
2019-02-27T20:07:50.455Z,42.59
2019-02-27T20:10:17.589Z,42.79
2019-02-27T20:12:47.368Z,42.89
2019-02-27T20:15:19.615Z,42.94
2019-02-27T20:17:47.555Z,43.40
2019-02-27T20:20:18.224Z,43.63
2019-02-27T20:22:45.612Z,43.65
2019-02-27T20:25:17.967Z,43.65
2019-02-27T20:27:45.104Z,43.64
2019-02-27T20:30:16.514Z,43.75
2019-02-27T20:32:45.732Z,43.99
2019-02-27T20:35:13.205Z,44.32
2019-02-27T20:37:41.390Z,45.02
2019-02-27T20:40:11.787Z,45.76
2019-02-27T20:42:38.751Z,45.37
2019-02-27T20:45:13.181Z,44.76
2019-02-27T20:47:40.552Z,45.11
2019-02-27T20:50:12.403Z,45.49
2019-02-27T20:52:39.187Z,45.02
2019-02-27T20:55:06.138Z,44.81
2019-02-27T20:57:33.545Z,44.37
2019-02-27T21:00:02.646Z,43.90
2019-02-27T21:02:29.140Z,43.81
2019-02-27T21:04:56.260Z,44.02
2019-02-27T21:07:26.069Z,44.29
2019-02-27T21:09:54.412Z,44.31
2019-02-27T21:12:21.227Z,44.66
2019-02-27T21:14:48.213Z,44.84
2019-02-27T21:17:16.528Z,44.83
2019-02-27T21:19:43.976Z,44.91
2019-02-27T21:22:10.718Z,46.03
2019-02-27T21:24:40.559Z,46.06
2019-02-27T21:27:06.403Z,45.32
2019-02-27T21:29:33.256Z,45.26
2019-02-27T21:32:03.014Z,45.57
2019-02-27T21:34:30.077Z,46.02
2019-02-27T21:36:56.817Z,46.30
2019-02-27T21:39:25.176Z,46.03
2019-02-27T21:41:53.099Z,45.66
2019-02-27T21:44:25.536Z,45.88
2019-02-27T21:46:49.173Z,46.16
2019-02-27T21:49:16.990Z,46.29
2019-02-27T21:51:47.747Z,46.82
2019-02-27T21:54:13.618Z,46.71
2019-02-27T21:59:07.851Z,46.93
2019-02-27T22:01:36.954Z,47.22
2019-02-27T22:04:03.829Z,46.99
2019-02-27T22:06:30.641Z,46.83
2019-02-27T22:09:19.738Z,46.89
2019-02-27T22:11:47.947Z,46.91
2019-02-27T22:14:16.725Z,46.87
2019-02-27T22:16:45.951Z,46.80
2019-02-27T22:19:12.718Z,46.72
2019-02-27T22:21:39.663Z,47.26
2019-02-27T22:24:06.462Z,47.78
2019-02-27T22:26:34.167Z,47.84
2019-02-27T22:29:02.187Z,47.89
2019-02-27T22:31:29.023Z,47.30
2019-02-27T22:33:57.010Z,46.94
2019-02-27T22:36:23.820Z,47.07
2019-02-27T22:38:50.620Z,47.83
2019-02-27T22:41:17.390Z,48.37
2019-02-27T22:43:45.583Z,48.00
2019-02-27T22:46:13.614Z,47.64
2019-02-27T22:48:41.674Z,47.65
2019-02-27T22:51:08.872Z,48.14
2019-02-27T22:53:35.643Z,47.82
2019-02-27T22:56:03.053Z,47.73
2019-02-27T22:58:30.143Z,47.90
2019-02-27T23:01:06.935Z,47.56
2019-02-27T23:03:44.364Z,47.35
2019-02-27T23:06:12.278Z,48.29
2019-02-27T23:08:40.250Z,48.30
2019-02-27T23:11:07.247Z,48.49
2019-02-27T23:13:34.347Z,48.93
2019-02-27T23:16:01.152Z,49.05
2019-02-27T23:18:29.591Z,49.77
2019-02-27T23:20:58.363Z,49.49
2019-02-27T23:23:25.032Z,49.75
2019-02-27T23:25:52.079Z,49.60
2019-02-27T23:28:19.516Z,49.53
2019-02-27T23:30:47.318Z,49.92
2019-02-27T23:33:15.210Z,50.38
2019-02-27T23:35:42.115Z,50.23
2019-02-27T23:38:08.849Z,50.67
2019-02-27T23:40:35.581Z,50.40
2019-02-27T23:43:03.390Z,50.09
2019-02-27T23:45:30.605Z,49.43
2019-02-27T23:47:59.249Z,49.88
2019-02-27T23:50:26.437Z,49.73
2019-02-27T23:52:53.415Z,49.50
2019-02-27T23:55:20.799Z,49.21
2019-02-27T23:57:47.555Z,49.13
